sensor_id;sensor_type;location;lat;lon;timestamp;P1;durP1;ratioP1;P2;durP2;ratioP2
20391;SDS011;10355;53.688;10.078;2023-01-16T00:01:48;1.92;;;0.90;;
20391;SDS011;10355;53.688;10.078;2023-01-16T00:04:32;2.08;;;1.10;;
20391;SDS011;10355;53.688;10.078;2023-01-16T00:07:15;3.08;;;1.25;;
20391;SDS011;10355;53.688;10.078;2023-01-16T00:09:58;2.25;;;1.10;;
20391;SDS011;10355;53.688;10.078;2023-01-16T00:12:40;3.05;;;1.08;;
20391;SDS011;10355;53.688;10.078;2023-01-16T00:15:23;1.63;;;1.00;;
20391;SDS011;10355;53.688;10.078;2023-01-16T00:18:05;1.77;;;1.00;;
20391;SDS011;10355;53.688;10.078;2023-01-16T00:20:49;2.47;;;1.30;;
20391;SDS011;10355;53.688;10.078;2023-01-16T00:23:32;3.25;;;1.00;;
20391;SDS011;10355;53.688;10.078;2023-01-16T00:26:15;2.55;;;1.20;;
20391;SDS011;10355;53.688;10.078;2023-01-16T00:28:57;1.90;;;1.13;;
20391;SDS011;10355;53.688;10.078;2023-01-16T00:31:40;1.83;;;1.20;;
20391;SDS011;10355;53.688;10.078;2023-01-16T00:34:23;4.68;;;1.30;;
20391;SDS011;10355;53.688;10.078;2023-01-16T00:37:08;4.13;;;1.15;;
20391;SDS011;10355;53.688;10.078;2023-01-16T00:39:50;1.98;;;1.33;;
20391;SDS011;10355;53.688;10.078;2023-01-16T00:42:34;2.30;;;1.45;;
20391;SDS011;10355;53.688;10.078;2023-01-16T00:45:16;2.83;;;1.50;;
20391;SDS011;10355;53.688;10.078;2023-01-16T00:47:59;2.05;;;1.50;;
20391;SDS011;10355;53.688;10.078;2023-01-16T00:50:42;1.73;;;1.50;;
20391;SDS011;10355;53.688;10.078;2023-01-16T00:53:26;3.00;;;1.60;;
20391;SDS011;10355;53.688;10.078;2023-01-16T00:56:08;4.57;;;2.00;;
20391;SDS011;10355;53.688;10.078;2023-01-16T00:58:51;2.50;;;1.60;;
20391;SDS011;10355;53.688;10.078;2023-01-16T01:01:33;2.63;;;1.90;;
20391;SDS011;10355;53.688;10.078;2023-01-16T01:04:16;4.15;;;1.90;;
20391;SDS011;10355;53.688;10.078;2023-01-16T01:06:59;3.22;;;1.90;;
20391;SDS011;10355;53.688;10.078;2023-01-16T01:09:43;2.47;;;1.80;;
20391;SDS011;10355;53.688;10.078;2023-01-16T01:12:25;5.03;;;2.20;;
20391;SDS011;10355;53.688;10.078;2023-01-16T01:15:08;4.70;;;1.92;;
20391;SDS011;10355;53.688;10.078;2023-01-16T01:17:51;4.28;;;1.92;;
20391;SDS011;10355;53.688;10.078;2023-01-16T01:20:33;3.13;;;1.75;;
20391;SDS011;10355;53.688;10.078;2023-01-16T01:23:16;5.10;;;1.92;;
20391;SDS011;10355;53.688;10.078;2023-01-16T01:26:04;2.97;;;1.90;;
20391;SDS011;10355;53.688;10.078;2023-01-16T01:28:47;2.80;;;1.67;;
20391;SDS011;10355;53.688;10.078;2023-01-16T01:31:29;4.75;;;1.70;;
20391;SDS011;10355;53.688;10.078;2023-01-16T01:34:12;3.63;;;1.63;;
20391;SDS011;10355;53.688;10.078;2023-01-16T01:36:54;2.78;;;1.30;;
20391;SDS011;10355;53.688;10.078;2023-01-16T01:39:37;3.70;;;1.30;;
20391;SDS011;10355;53.688;10.078;2023-01-16T01:42:21;3.05;;;1.23;;
20391;SDS011;10355;53.688;10.078;2023-01-16T01:45:22;2.17;;;1.08;;
20391;SDS011;10355;53.688;10.078;2023-01-16T01:48:09;4.65;;;1.30;;
20391;SDS011;10355;53.688;10.078;2023-01-16T01:50:58;3.83;;;1.20;;
20391;SDS011;10355;53.688;10.078;2023-01-16T01:53:43;2.50;;;1.00;;
20391;SDS011;10355;53.688;10.078;2023-01-16T01:56:28;1.88;;;0.98;;
20391;SDS011;10355;53.688;10.078;2023-01-16T01:59:14;3.85;;;1.20;;
20391;SDS011;10355;53.688;10.078;2023-01-16T02:01:57;2.08;;;0.95;;
20391;SDS011;10355;53.688;10.078;2023-01-16T02:04:42;1.63;;;0.98;;
20391;SDS011;10355;53.688;10.078;2023-01-16T02:07:26;3.80;;;1.05;;
20391;SDS011;10355;53.688;10.078;2023-01-16T02:10:10;3.05;;;0.95;;
20391;SDS011;10355;53.688;10.078;2023-01-16T02:12:53;2.08;;;0.82;;
20391;SDS011;10355;53.688;10.078;2023-01-16T02:15:38;2.33;;;1.10;;
20391;SDS011;10355;53.688;10.078;2023-01-16T02:18:41;1.98;;;1.10;;
20391;SDS011;10355;53.688;10.078;2023-01-16T02:25:03;3.28;;;1.08;;
20391;SDS011;10355;53.688;10.078;2023-01-16T02:27:59;3.22;;;1.10;;
20391;SDS011;10355;53.688;10.078;2023-01-16T02:31:03;1.73;;;1.00;;
20391;SDS011;10355;53.688;10.078;2023-01-16T02:33:50;3.40;;;1.38;;
20391;SDS011;10355;53.688;10.078;2023-01-16T02:36:37;3.65;;;1.33;;
20391;SDS011;10355;53.688;10.078;2023-01-16T02:39:28;3.20;;;1.30;;
20391;SDS011;10355;53.688;10.078;2023-01-16T02:42:16;2.97;;;1.33;;
20391;SDS011;10355;53.688;10.078;2023-01-16T02:45:01;3.17;;;1.10;;
20391;SDS011;10355;53.688;10.078;2023-01-16T02:47:50;2.78;;;1.10;;
20391;SDS011;10355;53.688;10.078;2023-01-16T02:50:38;2.83;;;1.20;;
20391;SDS011;10355;53.688;10.078;2023-01-16T02:53:23;2.45;;;1.00;;
20391;SDS011;10355;53.688;10.078;2023-01-16T02:56:08;3.28;;;0.90;;
20391;SDS011;10355;53.688;10.078;2023-01-16T02:58:54;2.75;;;1.00;;
20391;SDS011;10355;53.688;10.078;2023-01-16T03:01:37;1.83;;;0.88;;
20391;SDS011;10355;53.688;10.078;2023-01-16T03:04:38;2.20;;;1.00;;
20391;SDS011;10355;53.688;10.078;2023-01-16T03:07:23;1.80;;;0.95;;
20391;SDS011;10355;53.688;10.078;2023-01-16T03:10:15;2.13;;;0.90;;
20391;SDS011;10355;53.688;10.078;2023-01-16T03:13:03;2.90;;;0.88;;
20391;SDS011;10355;53.688;10.078;2023-01-16T03:15:52;2.13;;;0.88;;
20391;SDS011;10355;53.688;10.078;2023-01-16T03:18:40;1.52;;;0.75;;
20391;SDS011;10355;53.688;10.078;2023-01-16T03:21:27;1.42;;;0.68;;
20391;SDS011;10355;53.688;10.078;2023-01-16T03:24:18;4.82;;;1.27;;
20391;SDS011;10355;53.688;10.078;2023-01-16T03:27:06;4.38;;;1.00;;
20391;SDS011;10355;53.688;10.078;2023-01-16T03:29:53;3.13;;;0.80;;
20391;SDS011;10355;53.688;10.078;2023-01-16T03:32:37;1.30;;;0.70;;
20391;SDS011;10355;53.688;10.078;2023-01-16T03:35:24;3.35;;;0.70;;
20391;SDS011;10355;53.688;10.078;2023-01-16T03:38:09;1.92;;;0.82;;
20391;SDS011;10355;53.688;10.078;2023-01-16T03:40:53;2.53;;;1.08;;
20391;SDS011;10355;53.688;10.078;2023-01-16T03:43:37;3.92;;;1.00;;
20391;SDS011;10355;53.688;10.078;2023-01-16T03:46:22;3.33;;;1.02;;
20391;SDS011;10355;53.688;10.078;2023-01-16T03:49:06;2.25;;;1.00;;
20391;SDS011;10355;53.688;10.078;2023-01-16T03:51:51;1.58;;;0.75;;
20391;SDS011;10355;53.688;10.078;2023-01-16T03:54:40;4.43;;;0.93;;
20391;SDS011;10355;53.688;10.078;2023-01-16T03:57:25;2.67;;;0.80;;
20391;SDS011;10355;53.688;10.078;2023-01-16T04:00:09;2.30;;;0.90;;
20391;SDS011;10355;53.688;10.078;2023-01-16T04:02:55;1.92;;;0.70;;
20391;SDS011;10355;53.688;10.078;2023-01-16T04:05:40;4.85;;;1.00;;
20391;SDS011;10355;53.688;10.078;2023-01-16T04:08:27;2.67;;;0.88;;
20391;SDS011;10355;53.688;10.078;2023-01-16T04:11:12;2.45;;;0.93;;
20391;SDS011;10355;53.688;10.078;2023-01-16T04:13:55;1.45;;;0.80;;
20391;SDS011;10355;53.688;10.078;2023-01-16T04:16:39;1.65;;;0.90;;
20391;SDS011;10355;53.688;10.078;2023-01-16T04:19:23;2.45;;;0.90;;
20391;SDS011;10355;53.688;10.078;2023-01-16T04:22:07;1.35;;;0.95;;
20391;SDS011;10355;53.688;10.078;2023-01-16T04:24:50;2.40;;;0.77;;
20391;SDS011;10355;53.688;10.078;2023-01-16T04:27:35;1.95;;;0.70;;
20391;SDS011;10355;53.688;10.078;2023-01-16T04:30:19;3.95;;;0.90;;
20391;SDS011;10355;53.688;10.078;2023-01-16T04:33:02;4.43;;;0.90;;
20391;SDS011;10355;53.688;10.078;2023-01-16T04:35:45;3.60;;;1.10;;
20391;SDS011;10355;53.688;10.078;2023-01-16T04:38:27;3.35;;;0.77;;
20391;SDS011;10355;53.688;10.078;2023-01-16T04:41:10;2.97;;;0.80;;
20391;SDS011;10355;53.688;10.078;2023-01-16T04:43:54;3.83;;;0.80;;
20391;SDS011;10355;53.688;10.078;2023-01-16T04:46:37;3.28;;;0.95;;
20391;SDS011;10355;53.688;10.078;2023-01-16T04:49:20;2.25;;;0.63;;
20391;SDS011;10355;53.688;10.078;2023-01-16T04:52:02;2.28;;;0.63;;
20391;SDS011;10355;53.688;10.078;2023-01-16T04:54:45;2.50;;;0.80;;
20391;SDS011;10355;53.688;10.078;2023-01-16T04:57:28;2.30;;;0.88;;
20391;SDS011;10355;53.688;10.078;2023-01-16T05:00:12;2.83;;;0.80;;
20391;SDS011;10355;53.688;10.078;2023-01-16T05:02:55;1.90;;;0.75;;
20391;SDS011;10355;53.688;10.078;2023-01-16T05:05:37;2.55;;;0.85;;
20391;SDS011;10355;53.688;10.078;2023-01-16T05:08:20;2.67;;;0.80;;
20391;SDS011;10355;53.688;10.078;2023-01-16T05:11:07;2.92;;;0.80;;
20391;SDS011;10355;53.688;10.078;2023-01-16T05:13:49;2.03;;;0.70;;
20391;SDS011;10355;53.688;10.078;2023-01-16T05:16:33;2.00;;;0.77;;
20391;SDS011;10355;53.688;10.078;2023-01-16T05:19:16;2.85;;;0.70;;
20391;SDS011;10355;53.688;10.078;2023-01-16T05:21:58;2.50;;;0.77;;
20391;SDS011;10355;53.688;10.078;2023-01-16T05:24:41;2.10;;;0.82;;
20391;SDS011;10355;53.688;10.078;2023-01-16T05:27:24;1.25;;;0.60;;
20391;SDS011;10355;53.688;10.078;2023-01-16T05:30:07;2.00;;;0.80;;
20391;SDS011;10355;53.688;10.078;2023-01-16T05:32:51;2.90;;;0.75;;
20391;SDS011;10355;53.688;10.078;2023-01-16T05:35:33;2.50;;;0.65;;
20391;SDS011;10355;53.688;10.078;2023-01-16T05:38:16;2.55;;;0.63;;
20391;SDS011;10355;53.688;10.078;2023-01-16T05:40:59;2.80;;;1.10;;
20391;SDS011;10355;53.688;10.078;2023-01-16T05:43:41;2.88;;;0.77;;
20391;SDS011;10355;53.688;10.078;2023-01-16T05:46:24;3.42;;;0.80;;
20391;SDS011;10355;53.688;10.078;2023-01-16T05:49:08;2.80;;;1.02;;
20391;SDS011;10355;53.688;10.078;2023-01-16T05:51:51;2.13;;;0.50;;
20391;SDS011;10355;53.688;10.078;2023-01-16T05:54:33;2.58;;;0.75;;
20391;SDS011;10355;53.688;10.078;2023-01-16T05:57:16;1.02;;;0.63;;
20391;SDS011;10355;53.688;10.078;2023-01-16T05:59:58;4.85;;;0.70;;
20391;SDS011;10355;53.688;10.078;2023-01-16T06:02:41;2.17;;;0.70;;
20391;SDS011;10355;53.688;10.078;2023-01-16T06:05:25;2.13;;;0.82;;
20391;SDS011;10355;53.688;10.078;2023-01-16T06:08:08;2.53;;;0.88;;
20391;SDS011;10355;53.688;10.078;2023-01-16T06:10:50;2.28;;;0.80;;
20391;SDS011;10355;53.688;10.078;2023-01-16T06:13:33;1.10;;;0.65;;
20391;SDS011;10355;53.688;10.078;2023-01-16T06:16:16;1.23;;;0.65;;
20391;SDS011;10355;53.688;10.078;2023-01-16T06:18:58;2.08;;;0.70;;
20391;SDS011;10355;53.688;10.078;2023-01-16T06:21:43;1.92;;;0.68;;
20391;SDS011;10355;53.688;10.078;2023-01-16T06:24:26;2.03;;;0.50;;
20391;SDS011;10355;53.688;10.078;2023-01-16T06:27:08;2.85;;;0.75;;
20391;SDS011;10355;53.688;10.078;2023-01-16T06:29:51;3.38;;;0.85;;
20391;SDS011;10355;53.688;10.078;2023-01-16T06:32:34;3.90;;;0.90;;
20391;SDS011;10355;53.688;10.078;2023-01-16T06:35:16;2.08;;;0.75;;
20391;SDS011;10355;53.688;10.078;2023-01-16T06:38:00;1.20;;;0.68;;
20391;SDS011;10355;53.688;10.078;2023-01-16T06:40:43;3.75;;;0.70;;
20391;SDS011;10355;53.688;10.078;2023-01-16T06:43:26;3.08;;;0.90;;
20391;SDS011;10355;53.688;10.078;2023-01-16T06:46:09;2.45;;;0.80;;
20391;SDS011;10355;53.688;10.078;2023-01-16T06:48:52;2.20;;;0.65;;
20391;SDS011;10355;53.688;10.078;2023-01-16T06:51:34;2.05;;;0.68;;
20391;SDS011;10355;53.688;10.078;2023-01-16T06:54:18;2.50;;;0.75;;
20391;SDS011;10355;53.688;10.078;2023-01-16T06:57:01;0.98;;;0.50;;
20391;SDS011;10355;53.688;10.078;2023-01-16T06:59:44;1.65;;;0.60;;
20391;SDS011;10355;53.688;10.078;2023-01-16T07:02:26;1.88;;;0.60;;
20391;SDS011;10355;53.688;10.078;2023-01-16T07:05:09;4.40;;;0.70;;
20391;SDS011;10355;53.688;10.078;2023-01-16T07:07:52;3.63;;;0.80;;
20391;SDS011;10355;53.688;10.078;2023-01-16T07:10:36;1.40;;;0.50;;
20391;SDS011;10355;53.688;10.078;2023-01-16T07:13:19;1.83;;;0.80;;
20391;SDS011;10355;53.688;10.078;2023-01-16T07:16:08;1.45;;;0.60;;
20391;SDS011;10355;53.688;10.078;2023-01-16T07:19:10;2.08;;;0.70;;
20391;SDS011;10355;53.688;10.078;2023-01-16T07:22:12;1.98;;;0.65;;
20391;SDS011;10355;53.688;10.078;2023-01-16T07:25:14;1.30;;;0.60;;
20391;SDS011;10355;53.688;10.078;2023-01-16T07:27:58;5.47;;;0.88;;
20391;SDS011;10355;53.688;10.078;2023-01-16T07:30:41;4.32;;;0.70;;
20391;SDS011;10355;53.688;10.078;2023-01-16T07:33:25;2.08;;;0.73;;
20391;SDS011;10355;53.688;10.078;2023-01-16T07:36:08;3.08;;;0.70;;
20391;SDS011;10355;53.688;10.078;2023-01-16T07:38:50;2.38;;;0.60;;
20391;SDS011;10355;53.688;10.078;2023-01-16T07:41:33;1.85;;;0.70;;
20391;SDS011;10355;53.688;10.078;2023-01-16T07:44:18;2.28;;;0.68;;
20391;SDS011;10355;53.688;10.078;2023-01-16T07:47:01;3.45;;;0.82;;
20391;SDS011;10355;53.688;10.078;2023-01-16T07:49:44;1.42;;;0.52;;
20391;SDS011;10355;53.688;10.078;2023-01-16T07:52:26;2.95;;;0.90;;
20391;SDS011;10355;53.688;10.078;2023-01-16T07:55:09;1.63;;;0.68;;
20391;SDS011;10355;53.688;10.078;2023-01-16T07:57:52;1.52;;;0.90;;
20391;SDS011;10355;53.688;10.078;2023-01-16T08:00:36;0.85;;;0.60;;
20391;SDS011;10355;53.688;10.078;2023-01-16T08:03:18;1.83;;;0.52;;
20391;SDS011;10355;53.688;10.078;2023-01-16T08:06:02;1.63;;;0.65;;
20391;SDS011;10355;53.688;10.078;2023-01-16T08:08:45;1.42;;;0.70;;
20391;SDS011;10355;53.688;10.078;2023-01-16T08:11:27;1.00;;;0.70;;
20391;SDS011;10355;53.688;10.078;2023-01-16T08:14:20;3.70;;;0.93;;
20391;SDS011;10355;53.688;10.078;2023-01-16T08:17:04;0.90;;;0.70;;
20391;SDS011;10355;53.688;10.078;2023-01-16T08:19:47;1.65;;;0.68;;
20391;SDS011;10355;53.688;10.078;2023-01-16T08:22:29;1.73;;;0.80;;
20391;SDS011;10355;53.688;10.078;2023-01-16T08:25:12;1.75;;;0.60;;
20391;SDS011;10355;53.688;10.078;2023-01-16T08:27:55;1.23;;;0.60;;
20391;SDS011;10355;53.688;10.078;2023-01-16T08:30:38;2.17;;;0.65;;
20391;SDS011;10355;53.688;10.078;2023-01-16T08:33:22;3.78;;;0.60;;
20391;SDS011;10355;53.688;10.078;2023-01-16T08:36:05;1.33;;;0.60;;
20391;SDS011;10355;53.688;10.078;2023-01-16T08:38:48;2.95;;;0.82;;
20391;SDS011;10355;53.688;10.078;2023-01-16T08:41:31;1.65;;;0.63;;
20391;SDS011;10355;53.688;10.078;2023-01-16T08:44:31;2.00;;;0.70;;
20391;SDS011;10355;53.688;10.078;2023-01-16T08:47:31;1.02;;;0.65;;
20391;SDS011;10355;53.688;10.078;2023-01-16T08:50:33;1.52;;;0.70;;
20391;SDS011;10355;53.688;10.078;2023-01-16T08:53:33;2.20;;;0.70;;
20391;SDS011;10355;53.688;10.078;2023-01-16T08:56:18;2.20;;;0.70;;
20391;SDS011;10355;53.688;10.078;2023-01-16T08:59:00;1.83;;;0.70;;
20391;SDS011;10355;53.688;10.078;2023-01-16T09:01:43;2.75;;;0.68;;
20391;SDS011;10355;53.688;10.078;2023-01-16T09:04:26;2.13;;;0.70;;
20391;SDS011;10355;53.688;10.078;2023-01-16T09:07:10;1.50;;;0.70;;
20391;SDS011;10355;53.688;10.078;2023-01-16T09:09:52;2.08;;;0.65;;
20391;SDS011;10355;53.688;10.078;2023-01-16T09:12:35;1.65;;;0.80;;
20391;SDS011;10355;53.688;10.078;2023-01-16T09:15:35;1.52;;;0.60;;
20391;SDS011;10355;53.688;10.078;2023-01-16T09:18:18;1.80;;;0.70;;
20391;SDS011;10355;53.688;10.078;2023-01-16T09:21:01;1.55;;;0.70;;
20391;SDS011;10355;53.688;10.078;2023-01-16T09:23:45;2.78;;;0.80;;
20391;SDS011;10355;53.688;10.078;2023-01-16T09:26:27;1.83;;;0.60;;
20391;SDS011;10355;53.688;10.078;2023-01-16T09:29:10;2.28;;;1.00;;
20391;SDS011;10355;53.688;10.078;2023-01-16T09:31:53;1.95;;;0.70;;
20391;SDS011;10355;53.688;10.078;2023-01-16T09:34:36;2.50;;;0.60;;
20391;SDS011;10355;53.688;10.078;2023-01-16T09:37:18;1.52;;;0.60;;
20391;SDS011;10355;53.688;10.078;2023-01-16T09:40:03;2.22;;;0.70;;
20391;SDS011;10355;53.688;10.078;2023-01-16T09:42:58;1.13;;;0.55;;
20391;SDS011;10355;53.688;10.078;2023-01-16T09:46:01;1.90;;;0.82;;
20391;SDS011;10355;53.688;10.078;2023-01-16T09:48:47;3.92;;;0.70;;
20391;SDS011;10355;53.688;10.078;2023-01-16T09:51:31;3.13;;;0.90;;
20391;SDS011;10355;53.688;10.078;2023-01-16T09:54:16;1.60;;;0.50;;
20391;SDS011;10355;53.688;10.078;2023-01-16T09:57:20;1.25;;;0.70;;
20391;SDS011;10355;53.688;10.078;2023-01-16T10:00:21;2.33;;;0.75;;
20391;SDS011;10355;53.688;10.078;2023-01-16T10:03:05;2.35;;;0.70;;
20391;SDS011;10355;53.688;10.078;2023-01-16T10:05:48;1.27;;;0.77;;
20391;SDS011;10355;53.688;10.078;2023-01-16T10:08:33;1.38;;;0.63;;
20391;SDS011;10355;53.688;10.078;2023-01-16T10:11:21;1.58;;;0.70;;
20391;SDS011;10355;53.688;10.078;2023-01-16T10:14:12;1.35;;;0.60;;
20391;SDS011;10355;53.688;10.078;2023-01-16T10:17:00;1.25;;;0.55;;
20391;SDS011;10355;53.688;10.078;2023-01-16T10:19:49;1.98;;;0.77;;
20391;SDS011;10355;53.688;10.078;2023-01-16T10:22:37;4.00;;;0.60;;
20391;SDS011;10355;53.688;10.078;2023-01-16T10:25:22;1.33;;;0.60;;
20391;SDS011;10355;53.688;10.078;2023-01-16T10:28:11;1.42;;;0.70;;
20391;SDS011;10355;53.688;10.078;2023-01-16T10:30:57;2.38;;;0.80;;
20391;SDS011;10355;53.688;10.078;2023-01-16T10:33:42;2.35;;;0.68;;
20391;SDS011;10355;53.688;10.078;2023-01-16T10:36:34;1.65;;;0.90;;
20391;SDS011;10355;53.688;10.078;2023-01-16T10:39:19;1.25;;;0.80;;
20391;SDS011;10355;53.688;10.078;2023-01-16T10:42:08;2.58;;;0.80;;
20391;SDS011;10355;53.688;10.078;2023-01-16T10:45:11;3.55;;;0.88;;
20391;SDS011;10355;53.688;10.078;2023-01-16T10:48:14;1.65;;;0.80;;
20391;SDS011;10355;53.688;10.078;2023-01-16T10:51:14;2.22;;;0.77;;
20391;SDS011;10355;53.688;10.078;2023-01-16T10:53:57;0.65;;;0.55;;
20391;SDS011;10355;53.688;10.078;2023-01-16T10:56:40;2.45;;;0.70;;
20391;SDS011;10355;53.688;10.078;2023-01-16T10:59:23;2.80;;;0.80;;
20391;SDS011;10355;53.688;10.078;2023-01-16T11:02:12;1.40;;;0.70;;
20391;SDS011;10355;53.688;10.078;2023-01-16T11:04:59;1.63;;;0.80;;
20391;SDS011;10355;53.688;10.078;2023-01-16T11:07:42;2.13;;;0.70;;
20391;SDS011;10355;53.688;10.078;2023-01-16T11:10:25;1.42;;;0.60;;
20391;SDS011;10355;53.688;10.078;2023-01-16T11:13:11;1.00;;;0.55;;
20391;SDS011;10355;53.688;10.078;2023-01-16T11:16:18;1.83;;;0.80;;
20391;SDS011;10355;53.688;10.078;2023-01-16T11:19:20;1.55;;;0.60;;
20391;SDS011;10355;53.688;10.078;2023-01-16T11:22:17;2.25;;;0.80;;
20391;SDS011;10355;53.688;10.078;2023-01-16T11:25:02;1.20;;;0.70;;
20391;SDS011;10355;53.688;10.078;2023-01-16T11:27:46;1.55;;;0.77;;
20391;SDS011;10355;53.688;10.078;2023-01-16T11:30:30;1.60;;;0.70;;
20391;SDS011;10355;53.688;10.078;2023-01-16T11:33:15;2.03;;;0.70;;
20391;SDS011;10355;53.688;10.078;2023-01-16T11:35:58;1.98;;;0.70;;
20391;SDS011;10355;53.688;10.078;2023-01-16T11:38:44;0.95;;;0.50;;
20391;SDS011;10355;53.688;10.078;2023-01-16T11:41:28;2.53;;;0.75;;
20391;SDS011;10355;53.688;10.078;2023-01-16T11:44:13;2.53;;;0.80;;
20391;SDS011;10355;53.688;10.078;2023-01-16T11:47:14;1.95;;;0.80;;
20391;SDS011;10355;53.688;10.078;2023-01-16T11:49:57;2.20;;;0.60;;
20391;SDS011;10355;53.688;10.078;2023-01-16T11:52:40;2.47;;;0.77;;
20391;SDS011;10355;53.688;10.078;2023-01-16T11:55:28;1.45;;;0.65;;
20391;SDS011;10355;53.688;10.078;2023-01-16T11:58:14;2.50;;;0.80;;
20391;SDS011;10355;53.688;10.078;2023-01-16T12:01:02;2.63;;;0.75;;
20391;SDS011;10355;53.688;10.078;2023-01-16T12:03:50;1.15;;;0.50;;
20391;SDS011;10355;53.688;10.078;2023-01-16T12:06:43;1.83;;;0.70;;
20391;SDS011;10355;53.688;10.078;2023-01-16T12:12:37;1.48;;;0.68;;
20391;SDS011;10355;53.688;10.078;2023-01-16T12:15:41;2.95;;;0.57;;
20391;SDS011;10355;53.688;10.078;2023-01-16T12:18:31;2.88;;;0.65;;
20391;SDS011;10355;53.688;10.078;2023-01-16T12:21:21;1.83;;;0.52;;
20391;SDS011;10355;53.688;10.078;2023-01-16T12:24:14;1.20;;;0.70;;
20391;SDS011;10355;53.688;10.078;2023-01-16T12:27:02;1.85;;;0.75;;
20391;SDS011;10355;53.688;10.078;2023-01-16T12:29:53;0.90;;;0.60;;
20391;SDS011;10355;53.688;10.078;2023-01-16T12:32:45;0.90;;;0.50;;
20391;SDS011;10355;53.688;10.078;2023-01-16T12:35:39;1.90;;;0.65;;
20391;SDS011;10355;53.688;10.078;2023-01-16T12:38:26;0.90;;;0.50;;
20391;SDS011;10355;53.688;10.078;2023-01-16T12:41:14;0.60;;;0.40;;
20391;SDS011;10355;53.688;10.078;2023-01-16T12:44:20;1.30;;;0.50;;
20391;SDS011;10355;53.688;10.078;2023-01-16T12:47:09;1.65;;;0.50;;
20391;SDS011;10355;53.688;10.078;2023-01-16T12:50:02;1.90;;;0.60;;
20391;SDS011;10355;53.688;10.078;2023-01-16T12:52:49;3.00;;;0.68;;
20391;SDS011;10355;53.688;10.078;2023-01-16T12:55:37;1.20;;;0.77;;
20391;SDS011;10355;53.688;10.078;2023-01-16T12:58:33;2.42;;;0.70;;
20391;SDS011;10355;53.688;10.078;2023-01-16T13:01:18;2.15;;;0.90;;
20391;SDS011;10355;53.688;10.078;2023-01-16T13:04:06;2.63;;;0.70;;
20391;SDS011;10355;53.688;10.078;2023-01-16T13:06:55;3.20;;;0.73;;
20391;SDS011;10355;53.688;10.078;2023-01-16T13:09:39;1.70;;;0.52;;
20391;SDS011;10355;53.688;10.078;2023-01-16T13:12:24;1.48;;;0.70;;
20391;SDS011;10355;53.688;10.078;2023-01-16T13:15:26;2.38;;;0.70;;
20391;SDS011;10355;53.688;10.078;2023-01-16T13:18:10;1.23;;;0.50;;
20391;SDS011;10355;53.688;10.078;2023-01-16T13:20:58;2.28;;;0.60;;
20391;SDS011;10355;53.688;10.078;2023-01-16T13:23:43;2.25;;;0.70;;
20391;SDS011;10355;53.688;10.078;2023-01-16T13:26:26;1.48;;;0.60;;
20391;SDS011;10355;53.688;10.078;2023-01-16T13:29:10;3.92;;;0.70;;
20391;SDS011;10355;53.688;10.078;2023-01-16T13:31:54;1.60;;;0.70;;
20391;SDS011;10355;53.688;10.078;2023-01-16T13:34:44;2.15;;;0.68;;
20391;SDS011;10355;53.688;10.078;2023-01-16T13:37:44;1.23;;;0.57;;
20391;SDS011;10355;53.688;10.078;2023-01-16T13:40:41;1.25;;;0.63;;
20391;SDS011;10355;53.688;10.078;2023-01-16T13:43:26;0.73;;;0.55;;
20391;SDS011;10355;53.688;10.078;2023-01-16T13:46:29;1.20;;;0.60;;
20391;SDS011;10355;53.688;10.078;2023-01-16T13:49:15;1.85;;;0.60;;
20391;SDS011;10355;53.688;10.078;2023-01-16T13:51:59;0.80;;;0.60;;
20391;SDS011;10355;53.688;10.078;2023-01-16T13:54:44;2.35;;;0.60;;
20391;SDS011;10355;53.688;10.078;2023-01-16T13:57:28;2.67;;;0.60;;
20391;SDS011;10355;53.688;10.078;2023-01-16T14:00:11;1.83;;;0.80;;
20391;SDS011;10355;53.688;10.078;2023-01-16T14:03:00;5.25;;;0.85;;
20391;SDS011;10355;53.688;10.078;2023-01-16T14:05:44;2.13;;;0.65;;
20391;SDS011;10355;53.688;10.078;2023-01-16T14:08:28;4.68;;;0.85;;
20391;SDS011;10355;53.688;10.078;2023-01-16T14:11:34;1.33;;;0.60;;
20391;SDS011;10355;53.688;10.078;2023-01-16T14:20:51;1.83;;;0.70;;
20391;SDS011;10355;53.688;10.078;2023-01-16T14:23:35;1.75;;;0.60;;
20391;SDS011;10355;53.688;10.078;2023-01-16T14:26:41;1.30;;;0.85;;
20391;SDS011;10355;53.688;10.078;2023-01-16T14:29:26;0.70;;;0.50;;
20391;SDS011;10355;53.688;10.078;2023-01-16T14:32:15;3.03;;;0.80;;
20391;SDS011;10355;53.688;10.078;2023-01-16T14:34:59;2.80;;;0.85;;
20391;SDS011;10355;53.688;10.078;2023-01-16T14:37:42;1.30;;;0.50;;
20391;SDS011;10355;53.688;10.078;2023-01-16T14:40:26;1.60;;;0.70;;
20391;SDS011;10355;53.688;10.078;2023-01-16T14:43:31;1.38;;;0.60;;
20391;SDS011;10355;53.688;10.078;2023-01-16T14:46:32;1.00;;;0.70;;
20391;SDS011;10355;53.688;10.078;2023-01-16T14:49:43;2.05;;;0.60;;
20391;SDS011;10355;53.688;10.078;2023-01-16T14:52:57;1.35;;;0.70;;
20391;SDS011;10355;53.688;10.078;2023-01-16T14:56:03;1.73;;;0.65;;
20391;SDS011;10355;53.688;10.078;2023-01-16T14:58:50;3.50;;;0.70;;
20391;SDS011;10355;53.688;10.078;2023-01-16T15:01:38;1.02;;;0.57;;
20391;SDS011;10355;53.688;10.078;2023-01-16T15:04:40;1.27;;;0.50;;
20391;SDS011;10355;53.688;10.078;2023-01-16T15:07:28;1.73;;;0.80;;
20391;SDS011;10355;53.688;10.078;2023-01-16T15:10:11;1.33;;;0.63;;
20391;SDS011;10355;53.688;10.078;2023-01-16T15:13:11;1.70;;;0.50;;
20391;SDS011;10355;53.688;10.078;2023-01-16T15:15:56;0.73;;;0.60;;
20391;SDS011;10355;53.688;10.078;2023-01-16T15:18:42;1.63;;;0.70;;
20391;SDS011;10355;53.688;10.078;2023-01-16T15:21:57;2.50;;;0.70;;
20391;SDS011;10355;53.688;10.078;2023-01-16T15:24:39;1.30;;;0.70;;
20391;SDS011;10355;53.688;10.078;2023-01-16T15:27:25;1.92;;;0.75;;
20391;SDS011;10355;53.688;10.078;2023-01-16T15:30:12;1.05;;;0.65;;
20391;SDS011;10355;53.688;10.078;2023-01-16T15:33:00;1.05;;;0.50;;
20391;SDS011;10355;53.688;10.078;2023-01-16T15:35:57;1.05;;;0.70;;
20391;SDS011;10355;53.688;10.078;2023-01-16T15:38:40;2.35;;;0.80;;
20391;SDS011;10355;53.688;10.078;2023-01-16T15:41:26;1.65;;;0.70;;
20391;SDS011;10355;53.688;10.078;2023-01-16T15:44:28;1.67;;;0.70;;
20391;SDS011;10355;53.688;10.078;2023-01-16T15:47:34;2.15;;;0.80;;
20391;SDS011;10355;53.688;10.078;2023-01-16T15:50:26;1.85;;;0.90;;
20391;SDS011;10355;53.688;10.078;2023-01-16T15:53:12;1.63;;;0.73;;
20391;SDS011;10355;53.688;10.078;2023-01-16T15:56:00;1.73;;;0.57;;
20391;SDS011;10355;53.688;10.078;2023-01-16T15:58:43;2.53;;;0.77;;
20391;SDS011;10355;53.688;10.078;2023-01-16T16:01:36;2.58;;;0.80;;
20391;SDS011;10355;53.688;10.078;2023-01-16T16:04:19;1.00;;;0.70;;
20391;SDS011;10355;53.688;10.078;2023-01-16T16:07:03;1.30;;;0.80;;
20391;SDS011;10355;53.688;10.078;2023-01-16T16:09:47;2.00;;;0.75;;
20391;SDS011;10355;53.688;10.078;2023-01-16T16:12:31;2.17;;;1.00;;
20391;SDS011;10355;53.688;10.078;2023-01-16T16:15:16;4.68;;;0.95;;
20391;SDS011;10355;53.688;10.078;2023-01-16T16:18:18;2.47;;;0.70;;
20391;SDS011;10355;53.688;10.078;2023-01-16T16:21:03;1.48;;;0.60;;
20391;SDS011;10355;53.688;10.078;2023-01-16T16:23:54;0.95;;;0.52;;
20391;SDS011;10355;53.688;10.078;2023-01-16T16:26:38;2.72;;;0.55;;
20391;SDS011;10355;53.688;10.078;2023-01-16T16:29:21;1.83;;;0.80;;
20391;SDS011;10355;53.688;10.078;2023-01-16T16:32:04;2.95;;;0.80;;
20391;SDS011;10355;53.688;10.078;2023-01-16T16:34:50;2.47;;;0.65;;
20391;SDS011;10355;53.688;10.078;2023-01-16T16:37:34;1.08;;;0.70;;
20391;SDS011;10355;53.688;10.078;2023-01-16T16:40:27;1.42;;;0.70;;
20391;SDS011;10355;53.688;10.078;2023-01-16T16:43:10;2.38;;;0.90;;